Time;durP1;ratioP1;P1;durP2;ratioP2;P2;SDS_P1;SDS_P2;PMS_P1;PMS_P2;Temp;Humidity;BMP_temperature;BMP_pressure;BME280_temperature;BME280_humidity;BME280_pressure;Samples;Min_cycle;Max_cycle;Signal;HPM_P1;HPM_P2
2022/03/27 00:00:15;;;;;;;12.13;5.70;;;;;;;10.21;74.21;102990.41;5031698;28;20039;-72
2022/03/27 00:02:41;;;;;;;9.95;6.35;;;;;;;10.20;74.45;102993.28;5027876;28;20502;-69
2022/03/27 00:05:08;;;;;;;8.27;5.95;;;;;;;10.19;74.18;102986.16;5031426;28;20057;-70
2022/03/27 00:07:34;;;;;;;10.98;6.22;;;;;;;10.14;75.28;103000.22;5031470;28;20025;-71
2022/03/27 00:09:59;;;;;;;10.57;6.05;;;;;;;10.11;75.25;102995.13;5031422;28;20441;-71
2022/03/27 00:12:24;;;;;;;8.77;5.97;;;;;;;10.14;74.74;102994.81;5031709;28;20029;-69
2022/03/27 00:14:50;;;;;;;13.27;6.43;;;;;;;10.08;75.42;103000.88;5031834;28;20049;-69
2022/03/27 00:17:15;;;;;;;9.80;6.10;;;;;;;10.08;75.30;102996.34;5031788;28;20021;-70
2022/03/27 00:19:40;;;;;;;11.32;6.05;;;;;;;10.06;75.76;103002.94;5031790;28;20112;-70
2022/03/27 00:22:05;;;;;;;12.05;5.65;;;;;;;10.00;76.32;102999.03;5031521;28;20025;-71
2022/03/27 00:24:31;;;;;;;9.15;5.68;;;;;;;9.98;75.92;102990.25;5031056;28;20037;-70
2022/03/27 00:26:56;;;;;;;7.40;5.20;;;;;;;9.93;76.19;102993.47;5046662;28;20030;-70
2022/03/27 00:29:22;;;;;;;9.02;5.85;;;;;;;9.95;76.17;102996.00;5034540;28;20036;-71
2022/03/27 00:31:48;;;;;;;10.13;5.95;;;;;;;9.93;76.57;102989.88;5035150;28;20047;-70
2022/03/27 00:34:13;;;;;;;13.43;6.82;;;;;;;9.94;76.82;102994.28;5034609;28;20091;-70
2022/03/27 00:36:38;;;;;;;10.73;5.85;;;;;;;9.91;76.61;102989.22;5035192;28;20576;-70
2022/03/27 00:39:04;;;;;;;8.40;5.55;;;;;;;9.88;76.80;102990.41;5034922;28;20025;-73
2022/03/27 00:41:30;;;;;;;9.63;5.20;;;;;;;9.90;76.38;102991.09;5034485;28;20426;-69
2022/03/27 00:43:56;;;;;;;8.50;5.63;;;;;;;9.89;77.25;102991.25;5050194;28;20117;-70
2022/03/27 00:46:21;;;;;;;12.20;5.70;;;;;;;9.92;76.66;102991.75;5034910;28;20116;-70
2022/03/27 00:48:47;;;;;;;9.10;5.93;;;;;;;9.90;76.54;102982.97;5034614;28;20029;-71
2022/03/27 00:51:12;;;;;;;10.13;6.22;;;;;;;9.91;77.21;102983.81;5017000;28;20052;-70
2022/03/27 00:53:38;;;;;;;9.20;5.80;;;;;;;9.87;76.73;102986.03;5034751;28;20041;-71
2022/03/27 00:56:03;;;;;;;9.80;6.28;;;;;;;9.82;76.62;102992.94;5034594;28;20116;-70
2022/03/27 00:58:28;;;;;;;8.90;5.93;;;;;;;9.81;77.34;102988.53;5034397;28;20100;-69
2022/03/27 01:01:12;;;;;;;9.07;5.70;;;;;;;9.83;77.28;102983.78;5032255;28;20112;-74
2022/03/27 01:03:37;;;;;;;8.23;5.45;;;;;;;9.83;76.72;102986.50;5033929;28;20461;-71
2022/03/27 01:06:03;;;;;;;8.93;5.40;;;;;;;9.82;77.60;102991.06;5034684;28;20075;-73
2022/03/27 01:11:19;;;;;;;10.48;5.53;;;;;;;9.70;78.18;102976.19;5034260;28;20145;-70
2022/03/27 01:13:52;;;;;;;10.07;6.20;;;;;;;9.70;78.05;102976.19;5034672;28;20060;-73
2022/03/27 01:16:28;;;;;;;10.15;7.10;;;;;;;9.62;77.77;102973.44;5033300;28;20029;-73
2022/03/27 01:18:53;;;;;;;11.02;6.25;;;;;;;9.61;78.63;102974.50;5032937;28;20040;-73
2022/03/27 01:21:18;;;;;;;10.48;5.95;;;;;;;9.51;78.90;102980.91;5034368;28;20124;-72
2022/03/27 01:23:44;;;;;;;10.77;6.10;;;;;;;9.48;78.64;102973.13;5049295;28;20042;-73
2022/03/27 01:26:09;;;;;;;7.90;5.68;;;;;;;9.45;79.06;102978.00;5033677;28;20700;-71
2022/03/27 01:28:34;;;;;;;9.80;6.20;;;;;;;9.42;79.26;102979.19;5016582;28;20033;-70
2022/03/27 01:31:00;;;;;;;10.48;6.38;;;;;;;9.44;79.28;102981.72;5033886;28;20041;-70
2022/03/27 01:33:25;;;;;;;11.80;6.30;;;;;;;9.38;79.95;102975.13;5034059;28;20455;-72
2022/03/27 01:35:52;;;;;;;8.85;6.10;;;;;;;9.35;79.39;102981.69;5034088;28;20436;-69
2022/03/27 01:38:18;;;;;;;12.68;6.22;;;;;;;9.35;79.62;102976.28;5033575;28;20491;-69
2022/03/27 01:40:43;;;;;;;10.60;6.45;;;;;;;9.35;79.96;102983.56;5033261;28;20033;-70
2022/03/27 01:43:08;;;;;;;12.85;6.38;;;;;;;9.33;79.63;102978.31;5033692;28;20051;-70
2022/03/27 01:45:33;;;;;;;9.98;6.80;;;;;;;9.32;79.55;102976.59;5033815;28;20033;-71
2022/03/27 01:47:59;;;;;;;11.68;6.95;;;;;;;9.37;79.36;102979.66;5033902;28;20022;-71
2022/03/27 01:50:24;;;;;;;10.73;6.50;;;;;;;9.30;80.06;102981.34;5034233;28;20029;-69
2022/03/27 01:52:49;;;;;;;13.63;7.32;;;;;;;9.33;80.08;102972.03;5033453;28;20045;-71
2022/03/27 01:55:16;;;;;;;11.50;7.28;;;;;;;9.23;79.99;102974.91;5033353;28;20030;-69
2022/03/27 01:57:42;;;;;;;10.57;7.03;;;;;;;9.21;80.03;102980.47;5033447;28;20029;-72
2022/03/27 02:00:09;;;;;;;11.05;7.38;;;;;;;9.16;80.31;102985.53;5032209;28;20037;-70
2022/03/27 02:02:35;;;;;;;10.07;6.72;;;;;;;9.15;80.02;102977.56;5031053;28;20116;-71
2022/03/27 02:05:04;;;;;;;10.05;6.43;;;;;;;9.15;79.94;102972.16;5033830;28;20528;-69
2022/03/27 02:07:36;;;;;;;11.82;6.90;;;;;;;9.13;80.27;102975.00;5033368;28;20029;-72
2022/03/27 02:10:02;;;;;;;10.30;6.97;;;;;;;9.13;79.56;102974.19;5033502;28;20477;-70
2022/03/27 02:12:27;;;;;;;11.10;6.97;;;;;;;9.12;80.29;102961.66;5008464;28;20048;-70
2022/03/27 02:14:52;;;;;;;12.30;7.05;;;;;;;9.12;80.36;102970.66;5024328;28;20034;-69
2022/03/27 02:17:17;;;;;;;9.93;7.25;;;;;;;9.04;80.59;102976.88;5032429;28;20026;-70
2022/03/27 02:19:43;;;;;;;13.70;7.40;;;;;;;9.07;80.31;102972.97;5048709;28;20065;-70
2022/03/27 02:22:08;;;;;;;12.07;6.97;;;;;;;9.09;79.97;102970.09;5033068;28;20030;-72
2022/03/27 02:24:34;;;;;;;11.05;7.10;;;;;;;9.01;80.06;102977.19;5033041;28;20473;-72
2022/03/27 02:26:59;;;;;;;12.73;7.38;;;;;;;8.99;80.54;102971.09;5032944;28;20038;-70
2022/03/27 02:29:24;;;;;;;11.55;7.65;;;;;;;8.94;80.56;102976.13;5032885;28;20057;-71
2022/03/27 02:31:50;;;;;;;13.10;8.10;;;;;;;8.89;81.07;102978.47;5032496;28;20047;-72
2022/03/27 02:34:15;;;;;;;12.07;7.00;;;;;;;8.88;81.30;102974.09;5032932;28;20033;-70
2022/03/27 02:36:41;;;;;;;11.52;7.38;;;;;;;8.86;80.74;102967.97;5032717;28;20029;-71
2022/03/27 02:39:06;;;;;;;13.05;7.95;;;;;;;8.75;81.70;102971.81;5033291;28;20044;-72
2022/03/27 02:41:31;;;;;;;13.88;8.70;;;;;;;8.72;82.22;102968.59;5032759;28;20037;-70
2022/03/27 02:43:58;;;;;;;16.20;9.40;;;;;;;8.67;82.22;102969.91;5031632;28;20033;-72
2022/03/27 02:46:23;;;;;;;12.52;9.40;;;;;;;8.63;82.69;102973.94;5030818;28;20116;-73
2022/03/27 02:48:48;;;;;;;16.10;9.52;;;;;;;8.61;83.11;102967.88;5031621;28;20120;-69
2022/03/27 02:51:13;;;;;;;18.50;11.32;;;;;;;8.65;82.69;102971.94;5031916;28;20489;-71
2022/03/27 02:53:39;;;;;;;17.40;11.20;;;;;;;8.65;83.17;102968.38;5032116;28;20025;-71
2022/03/27 02:56:06;;;;;;;17.88;12.52;;;;;;;8.64;83.55;102975.63;5032718;28;20112;-70
2022/03/27 02:58:32;;;;;;;20.15;12.80;;;;;;;8.68;83.93;102965.34;5030858;28;20501;-70
2022/03/27 03:00:57;;;;;;;18.52;13.02;;;;;;;8.60;83.95;102962.63;5045509;28;20116;-71
2022/03/27 03:03:22;;;;;;;20.15;13.73;;;;;;;8.63;83.82;102962.31;5014467;28;20033;-71
2022/03/27 03:05:48;;;;;;;20.00;13.93;;;;;;;8.62;84.18;102966.88;5031556;28;20456;-70
2022/03/27 03:08:17;;;;;;;19.27;14.23;;;;;;;8.55;84.30;102965.81;5032315;28;20051;-72
2022/03/27 03:10:43;;;;;;;19.73;13.88;;;;;;;8.62;84.56;102966.00;5031542;28;20384;-70
2022/03/27 03:13:10;;;;;;;21.05;14.20;;;;;;;8.58;85.03;102968.19;5014810;28;20045;-69
2022/03/27 03:15:36;;;;;;;19.70;14.02;;;;;;;8.57;85.46;102962.94;5032276;28;20025;-73
2022/03/27 03:18:06;;;;;;;20.90;14.10;;;;;;;8.53;85.19;102967.81;5032555;28;20107;-70
2022/03/27 03:20:32;;;;;;;20.80;14.93;;;;;;;8.51;85.11;102969.81;5031973;28;20037;-70
2022/03/27 03:22:58;;;;;;;22.75;14.82;;;;;;;8.52;85.69;102964.25;5032331;28;20112;-70
2022/03/27 03:25:23;;;;;;;19.77;14.48;;;;;;;8.54;85.84;102957.88;5040443;28;20447;-71
2022/03/27 03:27:48;;;;;;;19.70;13.95;;;;;;;8.53;85.52;102957.03;5052362;28;20521;-70
2022/03/27 03:30:14;;;;;;;20.75;15.23;;;;;;;8.52;85.52;102958.88;5037682;28;20033;-70
2022/03/27 03:32:39;;;;;;;19.23;14.75;;;;;;;8.52;85.44;102955.34;5032073;28;20040;-70
2022/03/27 03:35:05;;;;;;;20.00;14.65;;;;;;;8.51;85.92;102949.09;5032320;28;20543;-69
2022/03/27 03:37:30;;;;;;;19.73;13.93;;;;;;;8.49;85.94;102952.94;5031848;28;20030;-70
2022/03/27 03:39:56;;;;;;;19.13;14.35;;;;;;;8.52;85.52;102952.63;5032629;28;20029;-70
2022/03/27 03:42:21;;;;;;;17.85;14.02;;;;;;;8.54;85.56;102953.31;5032040;28;20079;-70
2022/03/27 03:44:46;;;;;;;21.73;15.23;;;;;;;8.55;85.83;102952.31;5019744;28;20033;-69
2022/03/27 03:47:12;;;;;;;20.98;14.38;;;;;;;8.55;85.68;102949.63;5030739;28;20049;-71
2022/03/27 03:49:37;;;;;;;19.95;15.00;;;;;;;8.52;85.67;102949.94;5031981;28;20064;-72
2022/03/27 03:52:04;;;;;;;18.73;14.50;;;;;;;8.48;86.41;102953.94;5032114;28;20080;-71
2022/03/27 03:54:29;;;;;;;19.63;15.25;;;;;;;8.49;85.60;102958.34;5031565;28;20041;-70
2022/03/27 03:56:54;;;;;;;20.05;15.18;;;;;;;8.47;86.11;102952.25;5031690;28;20392;-72
2022/03/27 03:59:20;;;;;;;20.40;14.70;;;;;;;8.43;86.64;102958.97;5031391;28;20087;-73
2022/03/27 04:01:45;;;;;;;19.73;15.05;;;;;;;8.46;86.40;102955.97;5044671;28;20044;-70
2022/03/27 04:04:10;;;;;;;20.58;15.48;;;;;;;8.47;86.09;102953.13;5035181;28;20030;-70
2022/03/27 04:06:36;;;;;;;20.50;15.73;;;;;;;8.54;86.28;102964.09;5018154;28;20507;-73
2022/03/27 04:09:01;;;;;;;21.00;14.93;;;;;;;8.56;85.90;102956.72;5051150;28;20048;-70
2022/03/27 04:11:26;;;;;;;20.63;15.48;;;;;;;8.58;86.06;102959.25;5035287;28;20026;-72
2022/03/27 04:13:52;;;;;;;21.38;16.05;;;;;;;8.55;85.77;102955.00;5035817;28;20021;-72
2022/03/27 04:16:17;;;;;;;20.10;14.98;;;;;;;8.56;85.84;102964.81;5018143;28;20029;-71
2022/03/27 04:18:43;;;;;;;21.23;16.17;;;;;;;8.50;86.77;102962.75;5035551;28;20109;-72
2022/03/27 04:21:09;;;;;;;20.33;15.45;;;;;;;8.50;86.60;102962.75;5050992;28;20034;-71
2022/03/27 04:23:35;;;;;;;19.67;15.77;;;;;;;8.49;86.40;102952.94;5035080;28;20575;-71
2022/03/27 04:26:00;;;;;;;22.65;16.42;;;;;;;8.45;86.74;102956.97;5035629;28;20118;-72
2022/03/27 04:28:26;;;;;;;19.20;14.95;;;;;;;8.46;87.09;102950.56;5044903;28;20108;-73
2022/03/27 04:30:51;;;;;;;21.65;15.80;;;;;;;8.45;86.57;102955.09;5035417;28;20108;-69
2022/03/27 04:33:16;;;;;;;18.80;15.30;;;;;;;8.49;86.67;102944.84;5034596;28;20037;-71
2022/03/27 04:35:42;;;;;;;17.80;15.10;;;;;;;8.46;87.48;102947.88;5035062;28;20037;-70
2022/03/27 04:38:08;;;;;;;20.02;16.05;;;;;;;8.50;86.79;102951.97;5035277;28;20021;-72
2022/03/27 04:40:34;;;;;;;21.38;15.57;;;;;;;8.47;86.52;102952.25;5035474;28;20026;-73
2022/03/27 04:42:59;;;;;;;20.90;15.60;;;;;;;8.48;86.59;102964.75;5034673;28;20059;-72
2022/03/27 04:45:24;;;;;;;21.73;16.02;;;;;;;8.46;87.14;102958.66;5035284;28;20040;-72
2022/03/27 04:47:50;;;;;;;18.35;15.40;;;;;;;8.44;86.12;102953.44;5034833;28;20112;-72
2022/03/27 04:50:15;;;;;;;20.15;15.52;;;;;;;8.47;86.79;102955.81;5034969;28;20057;-70
2022/03/27 04:52:41;;;;;;;18.88;14.85;;;;;;;8.42;86.88;102954.56;5033592;28;20123;-70
2022/03/27 04:55:07;;;;;;;22.95;16.20;;;;;;;8.40;87.15;102956.56;5034988;28;20033;-71
2022/03/27 04:57:34;;;;;;;22.67;16.98;;;;;;;8.39;87.16;102950.31;5034617;28;20079;-73
2022/03/27 04:59:59;;;;;;;20.48;16.48;;;;;;;8.45;86.80;102957.81;5035492;28;20029;-71
2022/03/27 05:02:24;;;;;;;22.98;16.85;;;;;;;8.42;87.10;102962.66;5031527;28;20034;-70
2022/03/27 05:04:50;;;;;;;21.83;17.17;;;;;;;8.41;87.50;102967.22;5034621;28;20041;-70
2022/03/27 05:07:15;;;;;;;20.15;15.85;;;;;;;8.47;86.52;102965.75;5017032;28;20033;-72
2022/03/27 05:09:40;;;;;;;22.17;16.35;;;;;;;8.50;86.57;102968.16;5034125;28;20858;-70
2022/03/27 05:12:06;;;;;;;21.70;16.27;;;;;;;8.49;86.44;102971.84;5033134;28;20029;-72
2022/03/27 05:14:31;;;;;;;22.67;16.77;;;;;;;8.45;86.88;102963.19;5023740;28;20116;-72
2022/03/27 05:16:56;;;;;;;22.73;16.88;;;;;;;8.43;86.71;102972.44;5034446;28;20388;-70
2022/03/27 05:19:22;;;;;;;21.35;16.65;;;;;;;8.43;87.49;102973.28;5032939;28;20040;-70
2022/03/27 05:21:47;;;;;;;23.20;18.38;;;;;;;8.40;87.10;102970.06;5034498;28;20037;-72
2022/03/27 05:24:12;;;;;;;26.13;18.10;;;;;;;8.30;87.59;102981.81;5034029;28;20022;-71
2022/03/27 05:26:38;;;;;;;22.88;18.27;;;;;;;8.29;87.64;102981.97;5034428;28;20427;-72
2022/03/27 05:29:06;;;;;;;23.95;18.73;;;;;;;8.28;87.77;102973.00;5034098;28;20033;-71
2022/03/27 05:31:32;;;;;;;26.38;19.45;;;;;;;8.31;88.07;102982.66;5034208;28;20037;-70
2022/03/27 05:33:57;;;;;;;26.35;20.25;;;;;;;8.27;88.42;102983.94;5034197;28;20041;-71
2022/03/27 05:36:23;;;;;;;24.63;19.85;;;;;;;8.27;88.11;102974.03;5034236;28;20435;-71
2022/03/27 05:38:49;;;;;;;25.15;20.35;;;;;;;8.28;88.38;102986.50;5034105;28;20037;-72
2022/03/27 05:41:14;;;;;;;25.77;19.67;;;;;;;8.32;87.76;102987.03;5034117;28;20080;-72
2022/03/27 05:43:40;;;;;;;26.52;20.52;;;;;;;8.37;88.09;102979.31;5033653;28;20040;-72
2022/03/27 05:46:05;;;;;;;25.52;20.48;;;;;;;8.35;87.58;102986.72;5033601;28;20084;-72
2022/03/27 05:48:31;;;;;;;26.38;19.52;;;;;;;8.40;87.15;102972.75;5033724;28;20026;-71
2022/03/27 05:50:56;;;;;;;27.88;20.67;;;;;;;8.39;87.25;102992.66;5033646;28;20456;-72
2022/03/27 05:53:22;;;;;;;25.08;19.30;;;;;;;8.41;86.53;102982.53;5032418;28;20033;-69
2022/03/27 05:55:47;;;;;;;26.98;20.58;;;;;;;8.34;87.32;102985.03;5048776;28;20025;-72
2022/03/27 05:58:13;;;;;;;26.38;19.02;;;;;;;8.24;87.29;102990.50;5033886;28;20045;-71
2022/03/27 06:00:39;;;;;;;22.63;18.67;;;;;;;8.18;87.18;102984.91;5030829;28;20449;-71
2022/03/27 06:03:04;;;;;;;25.48;19.85;;;;;;;8.10;87.97;102986.53;5033507;28;20113;-72
2022/03/27 06:05:30;;;;;;;23.20;18.17;;;;;;;8.12;88.03;103002.53;5033028;28;20409;-70
2022/03/27 06:07:58;;;;;;;25.33;16.35;;;;;;;7.96;88.01;103005.97;5032906;28;20026;-72
2022/03/27 06:10:29;;;;;;;22.75;17.20;;;;;;;7.91;88.12;102998.34;5033433;28;20044;-71
2022/03/27 06:12:55;;;;;;;22.17;16.20;;;;;;;7.85;87.60;103001.66;5033609;28;20060;-70
2022/03/27 06:15:21;;;;;;;21.05;15.98;;;;;;;7.87;88.27;103005.03;5033518;28;20073;-72
2022/03/27 06:17:49;;;;;;;23.25;16.55;;;;;;;7.84;88.33;103010.72;5032916;28;20453;-72
2022/03/27 06:20:20;;;;;;;24.83;16.83;;;;;;;7.86;88.00;103002.50;5032319;28;20037;-72
2022/03/27 06:22:45;;;;;;;22.55;16.60;;;;;;;7.81;88.12;103006.50;5032743;28;20057;-72
2022/03/27 06:25:19;;;;;;;21.33;15.05;;;;;;;7.82;87.87;103012.75;5011478;28;20472;-69
2022/03/27 06:27:45;;;;;;;24.13;16.20;;;;;;;7.85;88.35;103011.56;5015106;28;20388;-72
2022/03/27 06:30:17;;;;;;;21.45;15.60;;;;;;;7.91;87.81;103009.13;5018315;28;20029;-71
2022/03/27 06:32:44;;;;;;;22.80;16.42;;;;;;;7.94;87.22;103010.66;5033025;28;20033;-73
2022/03/27 06:35:11;;;;;;;27.33;18.60;;;;;;;7.86;87.82;103013.28;5032602;28;20025;-71
2022/03/27 06:37:37;;;;;;;31.70;18.75;;;;;;;7.76;87.85;103007.94;5014702;28;20469;-72
2022/03/27 06:40:04;;;;;;;26.58;18.42;;;;;;;7.75;88.43;103007.09;5012182;28;20030;-70
2022/03/27 06:42:29;;;;;;;28.88;19.02;;;;;;;7.74;88.69;103015.34;5027680;28;20021;-72
2022/03/27 06:44:55;;;;;;;27.98;18.42;;;;;;;7.84;88.64;103018.81;5032299;28;20444;-70
2022/03/27 06:47:22;;;;;;;26.30;18.38;;;;;;;7.88;88.37;103022.91;5032963;28;20037;-71
2022/03/27 06:49:48;;;;;;;31.20;18.77;;;;;;;7.84;88.17;103016.13;5032211;28;20040;-71
2022/03/27 06:52:14;;;;;;;26.90;18.08;;;;;;;7.80;88.82;103020.13;5032467;28;20049;-70
2022/03/27 06:54:40;;;;;;;30.15;19.58;;;;;;;7.77;88.56;103015.88;5032002;28;20034;-72
2022/03/27 06:57:06;;;;;;;29.90;20.35;;;;;;;7.71;88.80;103010.25;5031201;28;20678;-69
2022/03/27 07:03:01;;;;;;;28.98;20.13;;;;;;;7.72;89.00;103018.19;5047766;28;20120;-70
2022/03/27 07:05:02;;;;;;;32.25;20.70;;;;;;;7.84;88.81;103016.13;5032528;28;20049;-73
2022/03/27 07:07:28;;;;;;;33.45;21.30;;;;;;;7.85;88.51;103016.97;5032247;28;20780;-72
2022/03/27 07:09:53;;;;;;;31.88;20.52;;;;;;;7.90;88.51;103023.59;5031862;28;20049;-70
2022/03/27 07:12:19;;;;;;;32.10;19.80;;;;;;;7.90;88.22;103020.91;5032464;28;20485;-71
2022/03/27 07:14:44;;;;;;;30.45;19.90;;;;;;;7.89;88.28;103019.19;5032126;28;20540;-71
2022/03/27 07:17:10;;;;;;;33.47;21.23;;;;;;;7.88;88.06;103022.91;5032346;28;20029;-72
2022/03/27 07:19:35;;;;;;;32.83;21.15;;;;;;;7.84;88.68;103018.81;5031955;28;20044;-72
2022/03/27 07:22:00;;;;;;;31.95;20.45;;;;;;;7.90;88.48;103018.19;5032364;28;20088;-73
2022/03/27 07:24:25;;;;;;;38.63;21.20;;;;;;;8.00;88.70;103026.19;5014669;28;20124;-70
2022/03/27 07:26:53;;;;;;;33.85;21.52;;;;;;;8.02;88.28;103023.34;5032144;28;20499;-72
2022/03/27 07:29:19;;;;;;;36.92;22.33;;;;;;;8.08;88.62;103020.06;5031979;28;20078;-71
2022/03/27 07:31:45;;;;;;;39.40;23.23;;;;;;;8.06;88.14;103019.34;5047325;28;20104;-70
2022/03/27 07:34:10;;;;;;;42.88;23.48;;;;;;;8.02;87.70;103018.81;5032179;28;20140;-71
2022/03/27 07:36:39;;;;;;;42.20;23.88;;;;;;;7.88;88.29;103016.66;5047199;28;20026;-71
2022/03/27 07:39:04;;;;;;;41.38;24.90;;;;;;;7.85;88.68;103022.34;5013482;28;20038;-72
2022/03/27 07:41:29;;;;;;;39.03;23.65;;;;;;;7.83;88.66;103025.19;5031918;28;20037;-70
2022/03/27 07:43:54;;;;;;;39.50;24.23;;;;;;;7.89;89.21;103026.44;5032034;28;20041;-71
2022/03/27 07:46:20;;;;;;;37.97;23.42;;;;;;;7.96;89.10;103019.44;5032158;28;20118;-72
2022/03/27 07:48:45;;;;;;;36.67;23.17;;;;;;;7.91;88.59;103014.50;5031622;28;20034;-72
2022/03/27 07:51:10;;;;;;;39.22;23.45;;;;;;;7.86;88.87;103024.06;5032135;28;20549;-71
2022/03/27 07:53:36;;;;;;;35.80;20.73;;;;;;;7.76;89.36;103024.13;5031270;28;20038;-69
2022/03/27 07:56:01;;;;;;;37.35;22.85;;;;;;;7.74;88.98;103026.13;5032009;28;20029;-70
2022/03/27 07:58:26;;;;;;;37.60;22.10;;;;;;;7.73;89.44;103022.59;5031410;28;20423;-71
2022/03/27 08:00:52;;;;;;;36.67;22.67;;;;;;;7.82;89.24;103023.53;5044997;28;20121;-69
2022/03/27 08:03:17;;;;;;;35.83;21.80;;;;;;;7.82;89.00;103018.13;5014380;28;20036;-69
2022/03/27 08:05:43;;;;;;;33.22;20.55;;;;;;;7.83;88.49;103022.50;5047037;28;20057;-71
2022/03/27 08:08:08;;;;;;;34.25;21.00;;;;;;;7.89;88.50;103018.34;5032316;28;20029;-71
2022/03/27 08:10:33;;;;;;;36.10;21.63;;;;;;;7.89;88.74;103019.19;5031353;28;20025;-72
2022/03/27 08:12:59;;;;;;;36.10;22.98;;;;;;;7.88;88.48;103017.53;5031690;28;20084;-73
2022/03/27 08:15:25;;;;;;;34.17;21.77;;;;;;;7.88;88.76;103017.53;5031232;28;20441;-71
2022/03/27 08:17:56;;;;;;;37.22;22.63;;;;;;;7.88;88.87;103009.44;5031509;28;20113;-72
2022/03/27 08:20:25;;;;;;;33.65;21.83;;;;;;;7.96;88.21;103022.13;5031865;28;20026;-76
2022/03/27 08:22:51;;;;;;;36.25;22.52;;;;;;;7.95;89.02;103015.03;5014656;28;20061;-74
2022/03/27 08:26:55;;;;;;;36.20;22.25;;;;;;;8.05;88.16;103015.81;5027317;28;20057;-72
2022/03/27 08:28:02;;;;;;;34.22;21.70;;;;;;;8.10;88.09;103020.75;5031464;28;20048;-72
2022/03/27 08:30:27;;;;;;;36.78;23.15;;;;;;;8.14;87.95;103022.13;5031234;28;20399;-71
2022/03/27 08:32:53;;;;;;;36.08;23.10;;;;;;;8.11;88.03;103019.75;5031418;28;20202;-71
2022/03/27 08:35:18;;;;;;;33.20;21.50;;;;;;;8.15;87.46;103029.19;5031727;28;20026;-73
2022/03/27 08:37:43;;;;;;;38.60;23.05;;;;;;;8.19;88.00;103030.59;5030862;28;20030;-72
2022/03/27 08:40:09;;;;;;;39.45;23.10;;;;;;;8.24;87.35;103028.25;5046713;28;20033;-72
2022/03/27 08:42:35;;;;;;;35.35;22.20;;;;;;;8.27;87.12;103022.59;5046743;28;20037;-76
2022/03/27 08:45:01;;;;;;;36.13;23.17;;;;;;;8.34;86.94;103020.94;5046680;28;20104;-74
2022/03/27 08:47:28;;;;;;;36.95;22.33;;;;;;;8.39;86.21;103025.03;5031790;28;20037;-76
2022/03/27 08:49:58;;;;;;;34.88;22.40;;;;;;;8.45;86.44;103032.50;5033910;28;20056;-73
2022/03/27 08:52:39;;;;;;;35.95;23.02;;;;;;;8.51;85.61;103029.19;5050367;28;20050;-72
2022/03/27 08:55:29;;;;;;;33.35;21.42;;;;;;;8.59;85.43;103017.59;5034729;28;20397;-74
2022/03/27 08:57:56;;;;;;;32.10;21.55;;;;;;;8.56;85.08;103024.19;5033607;28;20481;-74
2022/03/27 09:00:26;;;;;;;32.83;20.60;;;;;;;8.50;86.01;103028.34;5034484;28;20032;-77
2022/03/27 09:02:51;;;;;;;31.80;20.70;;;;;;;8.49;85.47;103025.81;5031976;28;20068;-72
2022/03/27 09:05:20;;;;;;;31.33;21.35;;;;;;;8.49;85.54;103034.75;5035083;28;20142;-74
2022/03/27 09:07:45;;;;;;;31.27;21.30;;;;;;;8.50;85.13;103032.91;5034669;28;20060;-70
2022/03/27 09:10:11;;;;;;;29.25;20.48;;;;;;;8.48;84.82;103043.88;5034939;28;20110;-71
2022/03/27 09:12:37;;;;;;;32.65;20.70;;;;;;;8.44;84.85;103036.22;5034625;28;20068;-72
2022/03/27 09:15:07;;;;;;;27.83;19.65;;;;;;;8.48;85.70;103051.09;5049969;28;20440;-71
2022/03/27 09:17:32;;;;;;;25.65;17.42;;;;;;;8.40;84.42;103048.31;5034356;28;20465;-72
2022/03/27 09:19:57;;;;;;;24.70;17.13;;;;;;;8.31;85.09;103045.53;5034460;28;20032;-73
2022/03/27 09:22:29;;;;;;;21.55;15.02;;;;;;;8.19;84.21;103059.44;5034471;28;20052;-71
2022/03/27 09:25:04;;;;;;;28.08;15.52;;;;;;;8.07;84.38;103048.03;5034524;28;20033;-73
2022/03/27 09:27:32;;;;;;;24.80;15.80;;;;;;;8.02;85.00;103050.31;5034663;28;20380;-72
2022/03/27 09:30:08;;;;;;;24.77;16.83;;;;;;;8.08;85.42;103047.88;5033476;28;20111;-71
2022/03/27 09:32:37;;;;;;;25.77;16.45;;;;;;;8.06;85.45;103047.19;5044677;28;20392;-71
2022/03/27 09:35:14;;;;;;;25.80;15.93;;;;;;;8.19;85.58;103057.56;5049380;28;20033;-70
2022/03/27 09:37:42;;;;;;;24.02;16.30;;;;;;;8.22;84.78;103051.03;5032681;28;20560;-73
2022/03/27 09:40:09;;;;;;;23.60;16.23;;;;;;;8.30;84.31;103048.38;5034087;28;20021;-70
2022/03/27 09:42:40;;;;;;;24.20;16.33;;;;;;;8.38;85.09;103050.28;5034044;28;20369;-70
2022/03/27 09:45:25;;;;;;;23.08;15.95;;;;;;;8.45;84.30;103040.63;5034402;28;20021;-72
2022/03/27 09:47:55;;;;;;;25.48;16.73;;;;;;;8.50;84.56;103043.69;5048003;28;20064;-70
2022/03/27 09:50:40;;;;;;;22.63;16.17;;;;;;;8.55;84.08;103035.97;5034572;28;20123;-68
2022/03/27 09:53:31;;;;;;;27.40;16.83;;;;;;;8.55;83.97;103046.75;5015767;28;20033;-70
2022/03/27 09:55:56;;;;;;;25.80;16.40;;;;;;;8.48;84.38;103029.50;5042533;28;20079;-72
2022/03/27 09:58:37;;;;;;;24.17;17.27;;;;;;;8.52;84.88;103026.31;5053482;28;20484;-71
2022/03/27 10:01:08;;;;;;;30.35;18.60;;;;;;;8.55;84.74;103017.09;5038254;28;20328;-71
2022/03/27 10:03:34;;;;;;;28.75;19.10;;;;;;;8.61;84.15;103015.59;5033879;28;20088;-69
2022/03/27 10:06:01;;;;;;;26.77;18.88;;;;;;;8.66;84.19;103016.81;5033592;28;20025;-70
2022/03/27 10:08:27;;;;;;;27.33;18.50;;;;;;;8.72;84.13;103009.09;5033483;28;20042;-69
2022/03/27 10:10:53;;;;;;;26.27;18.55;;;;;;;8.72;84.04;103004.53;5033238;28;20148;-71
2022/03/27 10:13:24;;;;;;;25.50;17.02;;;;;;;8.88;84.46;103001.09;5033707;28;20063;-69
2022/03/27 10:15:54;;;;;;;25.85;18.40;;;;;;;8.96;83.84;103001.13;5033153;28;20535;-72
2022/03/27 10:18:21;;;;;;;28.75;18.30;;;;;;;9.03;83.92;102994.06;5033435;28;20037;-71
2022/03/27 10:20:54;;;;;;;25.13;18.13;;;;;;;9.07;83.68;103007.25;5033218;28;20030;-70
2022/03/27 10:23:23;;;;;;;27.13;18.17;;;;;;;9.22;83.57;103000.22;5033065;28;20140;-70
2022/03/27 10:25:52;;;;;;;24.90;17.50;;;;;;;9.26;82.75;102989.94;5015847;28;20034;-74
2022/03/27 10:28:19;;;;;;;24.70;17.55;;;;;;;9.37;82.81;102995.03;5014968;28;20076;-71
2022/03/27 10:30:45;;;;;;;28.77;15.80;;;;;;;9.47;81.60;102993.03;5032593;28;20045;-72
2022/03/27 10:33:11;;;;;;;24.75;15.90;;;;;;;9.62;81.10;102987.84;5033325;28;20033;-73
2022/03/27 10:35:59;;;;;;;22.75;16.45;;;;;;;9.69;81.63;102991.56;5033365;28;20432;-73
2022/03/27 10:38:54;;;;;;;23.40;16.50;;;;;;;9.76;80.94;102987.16;5029660;28;20145;-73
2022/03/27 10:41:36;;;;;;;22.98;17.50;;;;;;;9.83;80.33;102978.38;5033082;28;20033;-74
2022/03/27 10:44:33;;;;;;;26.00;17.85;;;;;;;9.97;81.14;102988.53;5033032;28;20040;-74
2022/03/27 10:47:18;;;;;;;24.63;18.08;;;;;;;10.07;80.77;102978.41;5032567;28;20044;-74
2022/03/27 10:50:02;;;;;;;22.92;17.70;;;;;;;10.16;80.22;102983.81;5031899;28;20036;-74
2022/03/27 10:52:31;;;;;;;22.40;17.08;;;;;;;10.30;79.61;102972.31;5031328;28;20132;-74
2022/03/27 10:55:08;;;;;;;22.98;15.98;;;;;;;10.43;79.18;102978.06;5032657;28;20033;-73
2022/03/27 10:57:37;;;;;;;22.20;17.35;;;;;;;10.44;78.16;102974.34;5032946;28;20517;-74
2022/03/27 11:00:10;;;;;;;26.20;18.25;;;;;;;10.52;78.23;102964.50;5032495;28;20033;-75
2022/03/27 11:02:53;;;;;;;24.60;16.05;;;;;;;10.62;78.32;102967.88;5045807;28;20092;-72
2022/03/27 11:05:44;;;;;;;23.00;15.80;;;;;;;10.69;78.56;102966.16;5047447;28;20042;-74
2022/03/27 11:08:16;;;;;;;23.80;16.73;;;;;;;10.76;77.70;102964.44;5009174;28;20141;-76
2022/03/27 11:10:49;;;;;;;22.92;17.52;;;;;;;10.87;77.67;102959.66;5031640;28;20037;-76
2022/03/27 11:13:27;;;;;;;25.63;18.00;;;;;;;10.93;76.98;102953.53;5031807;28;20112;-73
2022/03/27 11:16:10;;;;;;;24.90;18.20;;;;;;;10.94;77.34;102952.53;5032331;28;20064;-74
2022/03/27 11:18:41;;;;;;;25.98;18.27;;;;;;;10.91;75.93;102953.72;5032908;28;20029;-73
2022/03/27 11:21:11;;;;;;;24.02;17.63;;;;;;;10.98;76.72;102951.16;5031501;28;20029;-76
2022/03/27 11:23:39;;;;;;;31.33;17.77;;;;;;;11.18;76.71;102943.44;5032578;28;20111;-75
2022/03/27 11:26:27;;;;;;;21.77;15.98;;;;;;;11.28;74.87;102940.53;5031206;28;20448;-77